createdAt,value
2022-09-09T00:00:44.435Z,93.71
2022-09-09T00:01:44.437Z,93.57
2022-09-09T00:02:44.514Z,94.02
2022-09-09T00:03:44.558Z,93.92
2022-09-09T00:04:44.409Z,94.12
2022-09-09T00:05:44.417Z,94.23
2022-09-09T00:06:44.394Z,94.43
2022-09-09T00:07:44.390Z,94.73
2022-09-09T00:08:44.387Z,94.12
2022-09-09T00:09:44.375Z,94.53
2022-09-09T00:10:44.366Z,94.84
2022-09-09T00:11:44.355Z,94.63
2022-09-09T00:12:44.350Z,95.04
2022-09-09T00:13:44.333Z,94.43
2022-09-09T00:14:44.326Z,94.23
2022-09-09T00:15:44.382Z,94.23
2022-09-09T00:16:44.332Z,95.65
2022-09-09T00:17:44.318Z,95.54
2022-09-09T00:18:44.302Z,95.45
2022-09-09T00:19:44.287Z,95.45
2022-09-09T00:20:44.277Z,95.45
2022-09-09T00:21:44.270Z,95.49
2022-09-09T00:22:44.260Z,95.39
2022-09-09T00:23:44.261Z,94.84
2022-09-09T00:24:44.240Z,95.29
2022-09-09T00:25:44.262Z,95.24
2022-09-09T00:26:44.234Z,95.18
2022-09-09T00:27:44.228Z,95.24
2022-09-09T00:28:44.220Z,96.10
2022-09-09T00:29:44.207Z,95.90
2022-09-09T00:31:35.720Z,96.15
2022-09-09T00:32:35.718Z,96.10
2022-09-09T00:33:35.718Z,95.90
2022-09-09T00:34:35.704Z,95.59
2022-09-09T00:35:35.701Z,95.29
2022-09-09T00:36:35.683Z,95.08
2022-09-09T00:37:35.680Z,95.29
2022-09-09T00:38:35.775Z,95.14
2022-09-09T00:39:36.797Z,95.29
2022-09-09T00:40:36.752Z,95.29
2022-09-09T00:41:36.747Z,95.29
2022-09-09T00:42:36.730Z,95.24
2022-09-09T00:43:36.722Z,95.34
2022-09-09T00:44:36.715Z,95.65
2022-09-09T00:45:36.709Z,95.34
2022-09-09T00:46:36.785Z,95.14
2022-09-09T00:47:36.692Z,95.45
2022-09-09T00:48:36.685Z,95.34
2022-09-09T00:49:36.689Z,95.34
2022-09-09T00:50:36.665Z,95.24
2022-09-09T00:51:36.672Z,94.93
2022-09-09T00:52:36.654Z,94.28
2022-09-09T00:53:36.646Z,94.48
2022-09-09T00:54:36.643Z,94.48
2022-09-09T00:55:36.634Z,93.98
2022-09-09T00:56:36.627Z,93.77
2022-09-09T00:57:36.617Z,93.98
2022-09-09T00:58:36.754Z,94.08
2022-09-09T00:59:36.606Z,93.87
2022-09-09T01:00:36.596Z,93.67
2022-09-09T01:01:36.636Z,93.98
2022-09-09T01:02:36.652Z,93.98
2022-09-09T01:03:36.570Z,93.98
2022-09-09T01:04:36.569Z,94.08
2022-09-09T01:05:36.551Z,93.98
2022-09-09T01:06:37.173Z,93.37
2022-09-09T01:07:36.542Z,93.57
2022-09-09T01:08:36.664Z,93.77
2022-09-09T01:09:36.532Z,93.67
2022-09-09T01:10:36.515Z,93.67
2022-09-09T01:11:36.516Z,93.87
2022-09-09T01:12:36.499Z,93.37
2022-09-09T01:13:36.495Z,93.57
2022-09-09T01:14:36.499Z,93.32
2022-09-09T01:15:36.482Z,93.63
2022-09-09T01:16:36.512Z,94.24
2022-09-09T01:17:36.460Z,94.60
2022-09-09T01:18:36.657Z,94.34
2022-09-09T01:19:36.444Z,94.40
2022-09-09T01:20:36.451Z,94.09
2022-09-09T01:21:36.433Z,93.48
2022-09-09T01:22:36.425Z,93.48
2022-09-09T01:23:36.416Z,93.99
2022-09-09T01:24:36.414Z,93.68
2022-09-09T01:25:36.405Z,93.79
2022-09-09T01:26:36.388Z,94.05
2022-09-09T01:27:36.381Z,93.74
2022-09-09T01:28:36.536Z,93.33
2022-09-09T01:29:36.374Z,93.64
2022-09-09T01:30:36.447Z,92.52
2022-09-09T01:31:36.354Z,91.41
2022-09-09T01:32:36.340Z,91.20
2022-09-09T01:33:36.344Z,91.51
2022-09-09T01:34:36.327Z,91.55
2022-09-09T01:35:36.305Z,91.45
2022-09-09T01:36:37.314Z,91.61
2022-09-09T01:37:36.303Z,91.51
2022-09-09T01:38:36.484Z,91.55
2022-09-09T01:39:36.394Z,91.30
2022-09-09T01:40:36.279Z,91.41
2022-09-09T01:41:36.271Z,91.55
2022-09-09T01:42:36.260Z,91.45
2022-09-09T01:43:36.272Z,91.25
2022-09-09T01:44:36.256Z,91.65
2022-09-09T01:45:36.296Z,91.75
2022-09-09T01:46:36.234Z,91.55
2022-09-09T01:47:36.232Z,91.45
2022-09-09T01:48:36.257Z,91.55
2022-09-09T01:49:36.211Z,91.29
2022-09-09T01:50:36.196Z,91.25
2022-09-09T01:51:36.196Z,91.55
2022-09-09T01:52:36.180Z,91.65
2022-09-09T01:53:36.170Z,91.65
2022-09-09T01:54:36.173Z,91.75
2022-09-09T01:55:37.108Z,91.35
2022-09-09T01:56:36.145Z,91.35
2022-09-09T01:57:36.146Z,91.25
2022-09-09T01:58:36.199Z,91.45
2022-09-09T01:59:36.149Z,91.45
2022-09-09T02:00:36.117Z,91.41
2022-09-09T02:01:36.173Z,91.41
2022-09-09T02:02:36.176Z,91.41
2022-09-09T02:03:36.095Z,91.41
2022-09-09T02:04:36.092Z,91.41
2022-09-09T02:05:36.080Z,91.41
2022-09-09T02:06:36.078Z,91.51
2022-09-09T02:07:36.071Z,91.56
2022-09-09T02:08:36.166Z,91.26
2022-09-09T02:09:36.050Z,91.26
2022-09-09T02:10:36.048Z,91.36
2022-09-09T02:11:36.035Z,91.16
2022-09-09T02:12:36.034Z,90.96
2022-09-09T02:13:36.690Z,91.06
2022-09-09T02:14:36.012Z,90.86
2022-09-09T02:15:36.002Z,90.92
2022-09-09T02:16:36.025Z,90.92
2022-09-09T02:17:35.989Z,90.81
2022-09-09T02:18:36.119Z,90.81
2022-09-09T02:19:35.973Z,90.81
2022-09-09T02:20:35.965Z,90.81
2022-09-09T02:21:35.956Z,90.67
2022-09-09T02:22:35.944Z,90.81
2022-09-09T02:23:35.941Z,90.61
2022-09-09T02:24:35.930Z,90.77
2022-09-09T02:25:35.931Z,90.47
2022-09-09T02:26:35.907Z,90.67
2022-09-09T02:27:35.904Z,90.26
2022-09-09T02:28:36.174Z,90.61
2022-09-09T02:29:35.892Z,90.36
2022-09-09T02:30:35.918Z,90.47
2022-09-09T02:31:35.880Z,90.97
2022-09-09T02:32:35.862Z,90.77
2022-09-09T02:33:35.861Z,90.77
2022-09-09T02:34:35.856Z,90.57
2022-09-09T02:35:35.840Z,90.77
2022-09-09T02:36:35.857Z,90.67
2022-09-09T02:37:35.832Z,90.77
2022-09-09T02:38:36.097Z,90.77
2022-09-09T02:39:35.884Z,90.57
2022-09-09T02:40:37.704Z,90.16
2022-09-09T02:41:35.792Z,90.36
2022-09-09T02:42:35.782Z,90.47
2022-09-09T02:43:35.795Z,90.36
2022-09-09T02:44:35.767Z,90.47
2022-09-09T02:45:35.809Z,90.77
2022-09-09T02:46:35.756Z,90.67
2022-09-09T02:47:35.755Z,90.67
2022-09-09T02:48:35.887Z,90.88
2022-09-09T02:49:35.730Z,90.88
2022-09-09T02:50:35.735Z,90.88
2022-09-09T02:51:35.713Z,90.77
2022-09-09T02:52:35.707Z,90.67
2022-09-09T02:53:35.701Z,90.77
2022-09-09T02:54:35.690Z,90.57
2022-09-09T02:55:35.691Z,90.42
2022-09-09T02:56:35.717Z,90.32
2022-09-09T02:57:35.663Z,90.32
2022-09-09T02:58:35.730Z,90.02
2022-09-09T02:59:35.651Z,90.22
2022-09-09T03:00:35.641Z,89.51
2022-09-09T03:01:35.679Z,89.72
2022-09-09T03:02:35.684Z,89.81
2022-09-09T03:03:35.616Z,89.72
2022-09-09T03:04:35.611Z,89.72
2022-09-09T03:05:35.612Z,89.72
2022-09-09T03:06:35.600Z,89.81
2022-09-09T03:07:35.587Z,89.92
2022-09-09T03:08:35.690Z,89.41
2022-09-09T03:09:35.573Z,89.81
2022-09-09T03:10:35.571Z,89.72
2022-09-09T03:11:35.573Z,89.51
2022-09-09T03:12:35.549Z,90.12
2022-09-09T03:13:35.545Z,90.12
2022-09-09T03:14:35.536Z,90.06
2022-09-09T03:15:35.529Z,90.77
2022-09-09T03:16:35.704Z,91.17
2022-09-09T03:17:35.521Z,91.17
2022-09-09T03:18:35.622Z,91.38
2022-09-09T03:19:35.501Z,91.38
2022-09-09T03:20:35.490Z,91.42
2022-09-09T03:21:35.483Z,91.58
2022-09-09T03:22:35.485Z,91.52
2022-09-09T03:23:35.474Z,91.42
2022-09-09T03:24:35.461Z,91.58
2022-09-09T03:25:35.458Z,91.02
2022-09-09T03:26:35.451Z,91.22
2022-09-09T03:27:35.453Z,91.73
2022-09-09T03:28:35.622Z,91.22
2022-09-09T03:29:35.424Z,92.54
2022-09-09T03:30:35.419Z,92.07
2022-09-09T03:31:35.445Z,92.44
2022-09-09T03:32:35.405Z,92.48
2022-09-09T03:33:35.390Z,92.68
2022-09-09T03:34:35.403Z,92.99
2022-09-09T03:35:35.383Z,92.38
2022-09-09T03:36:35.401Z,92.48
2022-09-09T03:37:35.363Z,91.83
2022-09-09T03:38:35.420Z,91.63
2022-09-09T03:39:35.377Z,91.32
2022-09-09T03:40:35.337Z,91.02
2022-09-09T03:41:35.323Z,90.81
2022-09-09T03:42:35.328Z,90.88
2022-09-09T03:43:35.306Z,90.47
2022-09-09T03:44:35.311Z,90.41
2022-09-09T03:45:35.370Z,90.16
2022-09-09T03:46:35.286Z,90.41
2022-09-09T03:47:35.278Z,90.16
2022-09-09T03:48:35.353Z,89.96
2022-09-09T03:49:35.265Z,89.76
2022-09-09T03:50:35.271Z,90.47
2022-09-09T03:51:35.731Z,90.26
2022-09-09T03:52:35.239Z,90.11
2022-09-09T03:53:35.236Z,90.26
2022-09-09T03:54:35.218Z,90.26
2022-09-09T03:55:35.217Z,90.31
2022-09-09T03:56:35.220Z,90.41
2022-09-09T03:57:35.196Z,90.57
2022-09-09T03:58:35.330Z,90.51
2022-09-09T03:59:35.183Z,90.51
2022-09-09T04:00:35.179Z,90.71
2022-09-09T04:01:35.247Z,90.71
2022-09-09T04:02:35.318Z,90.61
2022-09-09T04:03:35.164Z,91.02
2022-09-09T04:04:35.145Z,90.92
2022-09-09T04:05:35.132Z,90.92
2022-09-09T04:06:35.138Z,90.81
2022-09-09T04:07:35.115Z,90.81
2022-09-09T04:08:35.407Z,91.52
2022-09-09T04:09:35.105Z,91.22
2022-09-09T04:10:35.099Z,91.12
2022-09-09T04:11:35.085Z,91.32
2022-09-09T04:12:35.078Z,91.36
2022-09-09T04:13:35.077Z,91.42
2022-09-09T04:14:35.066Z,91.36
2022-09-09T04:15:35.058Z,91.56
2022-09-09T04:16:35.163Z,91.56
2022-09-09T04:17:35.033Z,92.38
2022-09-09T04:18:35.199Z,92.28
2022-09-09T04:19:35.031Z,91.87
2022-09-09T04:20:35.023Z,91.67
2022-09-09T04:21:35.004Z,92.28
2022-09-09T04:22:35.003Z,92.52
2022-09-09T04:23:34.998Z,92.48
2022-09-09T04:24:34.991Z,92.83
2022-09-09T04:25:34.970Z,92.72
2022-09-09T04:26:34.969Z,92.93
2022-09-09T04:27:34.959Z,92.63
2022-09-09T04:28:35.033Z,92.72
2022-09-09T04:29:34.947Z,92.93
2022-09-09T04:30:34.929Z,93.13
2022-09-09T04:31:34.955Z,93.13
2022-09-09T04:32:34.920Z,93.95
2022-09-09T04:33:39.425Z,93.44
2022-09-09T04:34:36.902Z,93.07
2022-09-09T04:35:34.897Z,93.44
2022-09-09T04:36:34.905Z,93.44
2022-09-09T04:37:34.879Z,93.64
2022-09-09T04:38:34.870Z,93.48
2022-09-09T04:39:34.880Z,93.59
2022-09-09T04:40:34.856Z,93.54
2022-09-09T04:41:34.860Z,93.24
2022-09-09T04:42:34.853Z,93.44
2022-09-09T04:43:34.830Z,93.64
2022-09-09T04:44:34.823Z,93.38
2022-09-09T04:45:34.902Z,93.59
2022-09-09T04:46:34.827Z,93.99
2022-09-09T04:47:34.802Z,93.68
2022-09-09T04:48:34.845Z,93.68
2022-09-09T04:49:34.788Z,93.79
2022-09-09T04:50:34.775Z,93.68
2022-09-09T04:51:34.775Z,93.68
2022-09-09T04:52:34.755Z,93.48
2022-09-09T04:53:34.747Z,93.59
2022-09-09T04:54:34.744Z,93.48
2022-09-09T04:55:34.738Z,93.44
2022-09-09T04:56:34.734Z,93.84
2022-09-09T04:57:34.712Z,93.38
2022-09-09T04:58:34.838Z,93.64
2022-09-09T04:59:34.704Z,93.64
2022-09-09T05:00:34.762Z,93.24
2022-09-09T05:01:34.696Z,93.33
2022-09-09T05:02:34.704Z,93.90
2022-09-09T05:03:34.712Z,92.79
2022-09-09T05:04:34.657Z,92.18
2022-09-09T05:05:34.650Z,92.48
2022-09-09T05:06:34.650Z,91.97
2022-09-09T05:07:34.646Z,92.03
2022-09-09T05:08:34.739Z,91.42
2022-09-09T05:09:34.651Z,91.52
2022-09-09T05:10:34.636Z,91.52
2022-09-09T05:11:34.603Z,91.47
2022-09-09T05:12:34.594Z,91.42
2022-09-09T05:13:38.332Z,91.32
2022-09-09T05:14:35.572Z,91.42
2022-09-09T05:15:34.607Z,91.52
2022-09-09T05:16:34.687Z,91.42
2022-09-09T05:17:34.549Z,91.22
2022-09-09T05:18:34.583Z,91.52
2022-09-09T05:19:35.171Z,91.42
2022-09-09T05:20:34.535Z,90.88
2022-09-09T05:21:34.530Z,91.08
2022-09-09T05:22:34.508Z,91.08
2022-09-09T05:23:34.505Z,90.97
2022-09-09T05:24:34.491Z,90.77
2022-09-09T05:25:34.500Z,90.36
2022-09-09T05:26:34.489Z,90.47
2022-09-09T05:27:34.467Z,90.57
2022-09-09T05:28:34.514Z,90.26
2022-09-09T05:29:34.486Z,89.86
2022-09-09T05:30:34.454Z,90.02
2022-09-09T05:31:34.481Z,89.81
2022-09-09T05:32:34.425Z,90.06
2022-09-09T05:33:34.423Z,89.92
2022-09-09T05:34:34.444Z,90.22
2022-09-09T05:35:34.414Z,90.02
2022-09-09T05:36:34.410Z,90.32
2022-09-09T05:37:34.392Z,90.12
2022-09-09T05:38:34.520Z,90.02
2022-09-09T05:39:35.257Z,89.92
2022-09-09T05:40:34.364Z,89.37
2022-09-09T05:41:34.366Z,89.72
2022-09-09T05:42:34.347Z,89.41
2022-09-09T05:43:34.341Z,89.72
2022-09-09T05:44:34.376Z,89.51
2022-09-09T05:45:34.338Z,89.61
2022-09-09T05:46:34.361Z,90.02
2022-09-09T05:47:34.309Z,90.22
2022-09-09T05:48:34.368Z,89.76
2022-09-09T05:49:35.303Z,89.51
2022-09-09T05:50:34.289Z,90.02
2022-09-09T05:51:34.300Z,89.72
2022-09-09T05:52:34.290Z,89.51
2022-09-09T05:53:34.260Z,89.21
2022-09-09T05:54:34.256Z,89.11
2022-09-09T05:55:34.253Z,88.80
2022-09-09T05:56:34.249Z,89.31
2022-09-09T05:57:34.230Z,89.31
2022-09-09T05:58:34.273Z,89.06
2022-09-09T05:59:34.220Z,89.06
2022-09-09T06:00:34.205Z,88.11
2022-09-09T06:01:34.266Z,88.11
2022-09-09T06:02:34.307Z,87.91
2022-09-09T06:03:34.181Z,87.10
2022-09-09T06:04:34.177Z,86.96
2022-09-09T06:05:34.167Z,86.55
2022-09-09T06:06:34.170Z,86.31
2022-09-09T06:07:34.149Z,85.74
2022-09-09T06:08:34.164Z,85.39
2022-09-09T06:09:34.165Z,84.89
2022-09-09T06:10:34.134Z,84.69
2022-09-09T06:11:34.148Z,85.05
2022-09-09T06:12:34.110Z,84.41
2022-09-09T06:13:34.107Z,83.50
2022-09-09T06:14:34.754Z,83.50
2022-09-09T06:15:34.088Z,82.75
2022-09-09T06:16:34.141Z,82.51
2022-09-09T06:17:34.085Z,81.22
2022-09-09T06:18:34.124Z,80.31
2022-09-09T06:19:34.054Z,79.67
2022-09-09T06:20:34.041Z,78.59
2022-09-09T06:21:34.036Z,77.04
2022-09-09T06:22:34.043Z,75.90
2022-09-09T06:23:34.037Z,75.02
2022-09-09T06:24:34.040Z,74.08
2022-09-09T06:25:34.010Z,73.44
2022-09-09T06:26:34.038Z,71.80
2022-09-09T06:27:33.995Z,71.26
2022-09-09T06:28:34.015Z,71.03
2022-09-09T06:29:33.967Z,70.53
2022-09-09T06:30:33.966Z,70.12
2022-09-09T06:31:34.016Z,70.12
2022-09-09T06:32:33.955Z,70.12
2022-09-09T06:33:33.949Z,69.49
2022-09-09T06:34:33.931Z,69.39
2022-09-09T06:35:33.929Z,69.69
2022-09-09T06:36:33.922Z,69.79
2022-09-09T06:37:33.935Z,68.96
2022-09-09T06:38:33.925Z,68.46
2022-09-09T06:39:33.954Z,68.52
2022-09-09T06:40:33.893Z,68.02
2022-09-09T06:41:33.881Z,68.26
2022-09-09T06:42:33.870Z,68.55
2022-09-09T06:43:33.904Z,68.35
2022-09-09T06:44:35.482Z,68.05
2022-09-09T06:45:34.862Z,68.05
2022-09-09T06:46:33.872Z,68.55
2022-09-09T06:47:33.912Z,68.42
2022-09-09T06:48:33.839Z,68.62
2022-09-09T06:49:33.848Z,68.35
2022-09-09T06:50:33.807Z,68.15
2022-09-09T06:51:33.803Z,68.52
2022-09-09T06:52:33.791Z,68.96
2022-09-09T06:53:33.789Z,69.06
2022-09-09T06:54:33.777Z,68.96
2022-09-09T06:55:33.779Z,69.66
2022-09-09T06:56:33.805Z,69.66
2022-09-09T06:57:37.261Z,69.66
2022-09-09T06:58:34.802Z,69.56
2022-09-09T06:59:33.762Z,69.26
2022-09-09T07:00:33.782Z,69.56
2022-09-09T07:01:33.783Z,69.23
2022-09-09T07:02:33.724Z,68.82
2022-09-09T07:03:33.715Z,67.89
2022-09-09T07:04:33.704Z,68.59
2022-09-09T07:05:33.707Z,67.86
2022-09-09T07:06:33.689Z,66.32
2022-09-09T07:07:33.683Z,66.39
2022-09-09T07:08:33.740Z,65.79
2022-09-09T07:09:33.683Z,64.96
2022-09-09T07:10:33.654Z,64.43
2022-09-09T07:11:33.646Z,64.13
2022-09-09T07:12:33.647Z,63.40
2022-09-09T07:13:33.631Z,63.30
2022-09-09T07:14:33.636Z,62.97
2022-09-09T07:15:33.618Z,62.70
2022-09-09T07:16:33.647Z,62.60
2022-09-09T07:17:34.201Z,63.40
2022-09-09T07:18:33.600Z,63.43
2022-09-09T07:19:33.586Z,63.93
2022-09-09T07:20:33.571Z,64.66
2022-09-09T07:21:33.598Z,65.29
2022-09-09T07:22:33.559Z,65.59
2022-09-09T07:23:36.319Z,65.83
2022-09-09T07:24:34.541Z,66.93
2022-09-09T07:25:33.529Z,67.05
2022-09-09T07:26:33.528Z,66.96
2022-09-09T07:27:33.561Z,66.66
2022-09-09T07:28:33.570Z,67.05
2022-09-09T07:29:33.505Z,66.46
2022-09-09T07:30:40.440Z,67.16
2022-09-09T07:31:33.513Z,66.46
2022-09-09T07:32:33.481Z,66.46
2022-09-09T07:33:33.535Z,66.66
2022-09-09T07:34:33.463Z,66.75
2022-09-09T07:35:33.450Z,67.76
2022-09-09T07:36:33.814Z,67.96
2022-09-09T07:37:33.433Z,67.99
2022-09-09T07:38:33.457Z,68.09
2022-09-09T07:39:33.494Z,68.09
2022-09-09T07:40:33.429Z,67.99
2022-09-09T07:41:33.412Z,67.79
2022-09-09T07:42:33.398Z,67.46
2022-09-09T07:43:33.389Z,66.52
2022-09-09T07:44:33.382Z,66.32
2022-09-09T07:45:33.372Z,66.09
2022-09-09T07:46:33.452Z,65.79
2022-09-09T07:47:33.358Z,66.19
2022-09-09T07:48:33.495Z,66.09
2022-09-09T07:49:33.335Z,65.89
2022-09-09T07:50:33.339Z,66.09
2022-09-09T07:51:33.334Z,66.79
2022-09-09T07:52:33.312Z,66.79
2022-09-09T07:53:33.369Z,66.19
2022-09-09T07:54:33.298Z,67.49
2022-09-09T07:55:33.296Z,68.23
2022-09-09T07:56:33.637Z,68.62
2022-09-09T07:57:34.270Z,69.02
2022-09-09T07:58:38.195Z,69.26
2022-09-09T07:59:35.398Z,69.56
2022-09-09T08:00:33.245Z,69.16
2022-09-09T08:01:33.329Z,69.36
2022-09-09T08:02:33.242Z,69.43
2022-09-09T08:03:33.725Z,69.32
2022-09-09T08:04:33.217Z,69.73
2022-09-09T08:05:33.208Z,69.82
2022-09-09T08:06:33.199Z,69.02
2022-09-09T08:07:33.199Z,69.12
2022-09-09T08:08:33.187Z,69.19
2022-09-09T08:09:33.187Z,69.39
2022-09-09T08:10:33.166Z,69.29
2022-09-09T08:11:38.139Z,69.19
2022-09-09T08:12:36.385Z,69.69
2022-09-09T08:13:33.212Z,69.99
2022-09-09T08:14:33.143Z,70.19
2022-09-09T08:15:33.123Z,70.39
2022-09-09T08:16:33.125Z,69.99
2022-09-09T08:17:33.120Z,69.96
2022-09-09T08:18:33.111Z,68.96
2022-09-09T08:19:33.100Z,69.36
2022-09-09T08:20:33.138Z,68.96
2022-09-09T08:21:33.083Z,68.79
2022-09-09T08:22:33.080Z,69.39
2022-09-09T08:23:33.121Z,69.59
2022-09-09T08:24:33.068Z,69.49
2022-09-09T08:25:33.054Z,69.19
2022-09-09T08:26:33.052Z,68.66
2022-09-09T08:27:33.032Z,68.52
2022-09-09T08:28:33.185Z,68.43
2022-09-09T08:29:33.018Z,67.96
2022-09-09T08:30:33.026Z,67.93
2022-09-09T08:31:33.029Z,68.13
2022-09-09T08:32:33.011Z,67.72
2022-09-09T08:33:33.026Z,68.03
2022-09-09T08:34:33.009Z,66.93
2022-09-09T08:35:33.839Z,67.63
2022-09-09T08:36:33.963Z,67.93
2022-09-09T08:37:32.950Z,68.56
2022-09-09T08:38:32.948Z,68.33
2022-09-09T08:39:32.972Z,68.13
2022-09-09T08:40:32.943Z,67.86
2022-09-09T08:41:32.928Z,67.86
2022-09-09T08:42:32.919Z,67.96
2022-09-09T08:43:32.991Z,68.36
2022-09-09T08:44:32.916Z,68.26
2022-09-09T08:45:32.888Z,68.43
2022-09-09T08:46:32.958Z,67.99
2022-09-09T08:47:34.084Z,67.79
2022-09-09T08:48:33.873Z,68.36
2022-09-09T08:49:32.869Z,68.36
2022-09-09T08:50:32.846Z,68.23
2022-09-09T08:51:32.842Z,68.43
2022-09-09T08:52:32.836Z,67.13
2022-09-09T08:53:32.851Z,67.63
2022-09-09T08:54:51.033Z,68.76
2022-09-09T08:55:34.813Z,68.76
2022-09-09T08:56:32.807Z,68.39
2022-09-09T08:57:32.798Z,68.19
2022-09-09T08:58:32.835Z,69.39
2022-09-09T08:59:32.774Z,69.46
2022-09-09T09:00:32.762Z,69.32
2022-09-09T09:01:32.828Z,66.03
2022-09-09T09:02:32.845Z,65.70
2022-09-09T09:03:32.752Z,64.27
2022-09-09T09:04:32.799Z,63.27
2022-09-09T09:05:32.727Z,64.17
2022-09-09T09:06:32.765Z,63.67
2022-09-09T09:07:33.145Z,62.90
2022-09-09T09:08:33.708Z,63.40
2022-09-09T09:09:32.700Z,62.77
2022-09-09T09:10:42.495Z,62.67
2022-09-09T09:11:34.700Z,62.18
2022-09-09T09:12:32.684Z,61.57
2022-09-09T09:13:32.687Z,62.18
2022-09-09T09:14:32.660Z,61.90
2022-09-09T09:15:32.862Z,63.53
2022-09-09T09:16:32.682Z,64.26
2022-09-09T09:17:32.631Z,64.56
2022-09-09T09:18:32.685Z,64.16
2022-09-09T09:19:32.615Z,64.36
2022-09-09T09:20:32.608Z,64.36
2022-09-09T09:21:32.608Z,63.86
2022-09-09T09:22:32.614Z,64.29
2022-09-09T09:23:32.588Z,64.36
2022-09-09T09:24:32.585Z,64.26
2022-09-09T09:25:32.575Z,63.76
2022-09-09T09:26:32.568Z,64.26
2022-09-09T09:27:32.550Z,64.56
2022-09-09T09:28:32.584Z,64.06
2022-09-09T09:29:32.537Z,63.53
2022-09-09T09:30:32.535Z,63.60
2022-09-09T09:31:32.560Z,62.50
2022-09-09T09:32:32.518Z,62.57
2022-09-09T09:33:33.269Z,61.87
2022-09-09T09:34:32.496Z,60.92
2022-09-09T09:35:35.091Z,60.22
2022-09-09T09:36:32.489Z,60.72
2022-09-09T09:37:33.048Z,58.89
2022-09-09T09:40:04.091Z,59.19
2022-09-09T09:40:34.477Z,59.09
2022-09-09T09:41:32.450Z,59.27
2022-09-09T09:42:32.485Z,59.17
2022-09-09T09:43:32.508Z,59.09
2022-09-09T09:44:32.506Z,59.42
2022-09-09T09:45:32.467Z,59.39
2022-09-09T09:46:32.456Z,59.30
2022-09-09T09:47:32.402Z,59.00
2022-09-09T09:48:32.417Z,58.80
2022-09-09T09:49:32.386Z,58.76
2022-09-09T09:50:32.436Z,58.40
2022-09-09T09:51:32.386Z,57.30
2022-09-09T09:52:32.385Z,58.59
2022-09-09T09:53:32.404Z,58.10
2022-09-09T09:54:32.355Z,57.80
2022-09-09T09:55:32.348Z,57.20
2022-09-09T09:56:32.344Z,57.60
2022-09-09T09:57:32.388Z,57.37
2022-09-09T09:58:32.986Z,57.05
2022-09-09T09:59:40.561Z,56.15
2022-09-09T10:00:34.310Z,56.95
2022-09-09T10:01:32.392Z,56.15
2022-09-09T10:02:32.283Z,55.58
2022-09-09T10:03:32.281Z,56.77
2022-09-09T10:04:32.300Z,56.51
2022-09-09T10:05:36.108Z,57.20
2022-09-09T10:06:33.260Z,56.81
2022-09-09T10:07:32.245Z,56.93
2022-09-09T10:08:32.246Z,57.00
2022-09-09T10:09:32.239Z,56.81
2022-09-09T10:10:32.231Z,56.68
2022-09-09T10:11:32.236Z,56.18
2022-09-09T10:12:32.209Z,56.35
2022-09-09T10:13:32.204Z,55.05
2022-09-09T10:14:32.777Z,55.35
2022-09-09T10:15:32.210Z,55.55
2022-09-09T10:16:32.196Z,55.46
2022-09-09T10:17:32.170Z,55.68
2022-09-09T10:18:32.189Z,55.51
2022-09-09T10:19:32.786Z,57.50
2022-09-09T10:20:32.151Z,57.10
2022-09-09T10:21:33.355Z,57.00
2022-09-09T10:22:33.147Z,57.23
2022-09-09T10:23:32.133Z,57.63
2022-09-09T10:24:32.134Z,56.60
2022-09-09T10:25:32.634Z,56.81
2022-09-09T10:26:32.124Z,56.87
2022-09-09T10:27:32.148Z,56.38
2022-09-09T10:28:32.090Z,56.27
2022-09-09T10:29:32.133Z,55.38
2022-09-09T10:30:32.075Z,55.46
2022-09-09T10:31:32.061Z,55.33
2022-09-09T10:32:32.053Z,55.55
2022-09-09T10:33:32.854Z,54.43
2022-09-09T10:34:32.039Z,55.26
2022-09-09T10:35:32.056Z,55.13
2022-09-09T10:36:32.031Z,55.13
2022-09-09T10:37:32.132Z,55.76
2022-09-09T10:38:32.033Z,55.85
2022-09-09T10:39:32.053Z,55.93
2022-09-09T10:40:32.783Z,55.85
2022-09-09T10:41:31.980Z,55.43
2022-09-09T10:42:31.974Z,55.55
2022-09-09T10:43:31.970Z,55.55
2022-09-09T10:44:31.955Z,55.43
2022-09-09T10:45:31.954Z,55.35
2022-09-09T10:46:32.022Z,54.46
2022-09-09T10:47:31.930Z,55.63
2022-09-09T10:48:31.919Z,54.75
2022-09-09T10:49:31.933Z,55.85
2022-09-09T10:51:00.006Z,55.85
2022-09-09T10:51:33.908Z,55.38
2022-09-09T10:52:31.890Z,55.28
2022-09-09T10:53:31.886Z,55.58
2022-09-09T10:54:31.898Z,55.68
2022-09-09T10:55:32.789Z,55.61
2022-09-09T10:56:31.904Z,55.31
2022-09-09T10:57:31.856Z,55.51
2022-09-09T10:58:31.855Z,55.71
2022-09-09T10:59:31.862Z,55.21
2022-09-09T11:00:31.832Z,56.01
2022-09-09T11:01:31.886Z,56.73
2022-09-09T11:02:31.815Z,57.03
2022-09-09T11:03:31.917Z,56.53
2022-09-09T11:04:31.804Z,57.65
2022-09-09T11:05:31.797Z,57.46
2022-09-09T11:06:31.841Z,57.15
2022-09-09T11:07:31.776Z,57.15
2022-09-09T11:08:31.777Z,57.73
2022-09-09T11:09:31.765Z,57.95
2022-09-09T11:10:31.759Z,57.95
2022-09-09T11:11:31.937Z,57.68
2022-09-09T11:12:31.734Z,58.28
2022-09-09T11:13:31.738Z,58.31
2022-09-09T11:14:35.382Z,58.71
2022-09-09T11:15:33.716Z,58.71
2022-09-09T11:16:31.750Z,58.41
2022-09-09T11:17:31.710Z,58.84
2022-09-09T11:18:31.687Z,58.84
2022-09-09T11:19:32.707Z,58.44
2022-09-09T11:20:31.690Z,58.91
2022-09-09T11:21:31.673Z,57.71
2022-09-09T11:22:31.676Z,57.58
2022-09-09T11:23:31.697Z,57.61
2022-09-09T11:24:31.674Z,56.68
2022-09-09T11:25:31.638Z,56.59
2022-09-09T11:26:31.703Z,57.28
2022-09-09T11:27:31.625Z,57.65
2022-09-09T11:28:31.629Z,56.85
2022-09-09T11:29:32.298Z,57.48
2022-09-09T11:30:55.060Z,55.66
2022-09-09T11:31:33.660Z,55.16
2022-09-09T11:32:31.623Z,55.39
2022-09-09T11:33:31.580Z,55.39
2022-09-09T11:34:31.635Z,54.99
2022-09-09T11:35:32.390Z,55.39
2022-09-09T11:36:31.567Z,55.16
2022-09-09T11:37:31.565Z,54.59
2022-09-09T11:38:31.600Z,52.99
2022-09-09T11:39:31.697Z,53.09
2022-09-09T11:40:31.536Z,53.49
2022-09-09T11:41:31.523Z,54.57
2022-09-09T11:42:31.515Z,53.24
2022-09-09T11:43:31.500Z,51.15
2022-09-09T11:44:31.633Z,51.25
2022-09-09T11:45:31.519Z,51.15
2022-09-09T11:46:31.539Z,50.97
2022-09-09T11:47:32.398Z,51.27
2022-09-09T11:48:31.557Z,50.37
2022-09-09T11:49:31.464Z,50.67
2022-09-09T11:50:31.490Z,50.97
2022-09-09T11:51:31.474Z,50.57
2022-09-09T11:52:31.438Z,51.57
2022-09-09T11:53:31.422Z,50.60
2022-09-09T11:54:32.428Z,51.40
2022-09-09T11:55:32.312Z,50.70
2022-09-09T11:56:31.423Z,50.79
2022-09-09T11:57:31.412Z,50.10
2022-09-09T11:58:31.397Z,48.28
2022-09-09T11:59:31.387Z,48.60
2022-09-09T12:00:31.379Z,49.10
2022-09-09T12:01:31.381Z,49.00
2022-09-09T12:02:31.411Z,51.29
2022-09-09T12:03:31.356Z,50.20
2022-09-09T12:04:31.402Z,50.79
2022-09-09T12:05:31.346Z,50.99
2022-09-09T12:06:31.354Z,49.60
2022-09-09T12:07:31.339Z,51.17
2022-09-09T12:08:31.318Z,50.99
2022-09-09T12:09:31.311Z,51.17
2022-09-09T12:10:31.302Z,50.70
2022-09-09T12:11:31.313Z,50.79
2022-09-09T12:12:31.295Z,49.60
2022-09-09T12:13:31.278Z,51.40
2022-09-09T12:14:31.819Z,51.12
2022-09-09T12:15:31.274Z,51.29
2022-09-09T12:16:31.344Z,50.70
2022-09-09T12:17:31.258Z,49.50
2022-09-09T12:18:31.250Z,49.70
2022-09-09T12:19:31.232Z,50.40
2022-09-09T12:20:31.224Z,50.52
2022-09-09T12:21:31.219Z,51.29
2022-09-09T12:22:31.213Z,51.29
2022-09-09T12:23:31.223Z,50.77
2022-09-09T12:24:31.194Z,49.87
2022-09-09T12:25:31.191Z,50.20
2022-09-09T12:26:31.820Z,50.10
2022-09-09T12:27:31.179Z,50.10
2022-09-09T12:28:31.182Z,50.90
2022-09-09T12:29:31.170Z,50.82
2022-09-09T12:30:31.250Z,50.30
2022-09-09T12:31:31.146Z,50.90
2022-09-09T12:32:31.144Z,50.79
2022-09-09T12:33:31.141Z,49.87
2022-09-09T12:34:31.127Z,50.17
2022-09-09T12:35:31.110Z,49.48
2022-09-09T12:36:31.108Z,49.57
2022-09-09T12:37:31.098Z,50.17
2022-09-09T12:38:31.099Z,51.17
2022-09-09T12:39:31.144Z,50.40
2022-09-09T12:40:31.106Z,50.72
2022-09-09T12:41:31.077Z,50.62
2022-09-09T12:42:31.906Z,51.32
2022-09-09T12:43:31.133Z,50.92
2022-09-09T12:44:31.045Z,50.90
2022-09-09T12:45:31.042Z,51.17
2022-09-09T12:46:31.101Z,50.57
2022-09-09T12:47:31.540Z,50.47
2022-09-09T12:48:32.015Z,51.17
2022-09-09T12:49:31.007Z,51.17
2022-09-09T12:50:31.007Z,50.87
2022-09-09T12:51:30.987Z,50.95
2022-09-09T12:52:30.994Z,50.45
2022-09-09T12:53:31.012Z,50.97
2022-09-09T12:54:30.970Z,51.35